Monday, September 24, 2018, 9:22 PM GMT
Back to Local

CYYG, Charlottetown, P. E. I.

Location: , , Canada Lat: 46.283
Local Time: 9:22 PM GMT (21:22 GMT) Lon: -63.133
Time Zone: GMT Elev: 157 ft

Show me the last for .
Show Decoded

2018-09-24 21:00 METAR CYYG 242100Z 34007KT 15SM FEW038 08/M01 A3058 RMK CF1 CF TR SLP359 =
2018-09-24 20:00 METAR CYYG 242000Z 33009KT 15SM FEW038 09/M01 A3058 RMK CF1 SLP359 =
2018-09-24 19:00 METAR CYYG 241900Z 32009G15KT 310V010 15SM FEW038 09/00 A3056 RMK CF2 SLP353 =
2018-09-24 18:00 METAR CYYG 241800Z 35009G16KT 300V010 15SM FEW038 10/01 A3056 RMK CF2 SLP350 =
2018-09-24 17:00 METAR CYYG 241700Z 33009G16KT 290V010 15SM SCT040 10/00 A3056 RMK CF3 SLP350 =
2018-09-24 16:00 METAR CYYG 241600Z 34010KT 290V020 15SM SCT039 10/01 A3055 RMK CF3 SLP350 =
2018-09-24 15:00 METAR CYYG 241500Z 31009G18KT 290V360 15SM SCT040 09/M00 A3055 RMK SC4 SLP347 =
2018-09-24 14:00 METAR CYYG 241400Z 34010G17KT 15SM FEW050 09/M02 A3054 RMK SC1 SLP343 =
2018-09-24 13:00 METAR CYYG 241300Z 33010G18KT 15SM FEW036 09/M02 A3052 RMK SC2 SLP338 =
2018-09-24 12:00 METAR CYYG 241200Z 30007KT 15SM FEW020 FEW040 07/M02 A3050 RMK SC1SC1 SC TR
                 SLP330 =
2018-09-24 11:00 METAR CYYG 241100Z 29005KT 15SM FEW051 05/M03 A3047 RMK SC2 SLP320 =
2018-09-24 10:00 METAR CYYG 241000Z 30005KT 15SM SCT055 SCT130 05/M03 A3044 RMK SC3AC1 AC TR
                 SLP310 =
2018-09-24 09:00 METAR CYYG 240900Z 31004KT 15SM FEW053 SCT130 04/M03 A3041 RMK SC2AC2 SLP300 =
2018-09-24 08:00 METAR CYYG 240800Z 33004KT 15SM SCT130 05/M04 A3038 RMK AC3 SLP291 =
2018-09-24 07:00 METAR CYYG 240700Z 34007KT 15SM SCT100 06/M03 A3036 RMK AC3 SLP283 =
2018-09-24 06:00 METAR CYYG 240600Z 34005KT 15SM FEW065 BKN090 06/M03 A3035 RMK SC2AC3 SLP279 =
2018-09-24 05:00 METAR CYYG 240500Z 34008KT 15SM FEW045 BKN067 BKN085 07/00 A3033 RMK SC1AC4AC2
                 SLP272 =
2018-09-24 04:09 METAR CYYG 240409Z 30005KT 15SM FEW038 BKN060 07/03 A3031 RMK SC2SC5 SLP267 =
2018-09-24 04:00 METAR CYYG 240400Z 32004KT 15SM -RA FEW038 BKN057 07/03 A3030 RMK SC2SC5 SLP265
                 =
2018-09-24 03:21 METAR CYYG 240321Z 33010G16KT 15SM FEW034 BKN060 07/04 A3030 RMK SC2SC5 SLP264 =
2018-09-24 03:00 METAR CYYG 240300Z 33013G20KT 15SM -RA BKN042 07/04 A3030 RMK SC6 SLP263 =
2018-09-24 02:52 METAR CYYG 240252Z 34014G22KT 15SM -RA BKN045 08/03 A3029 RMK SC7 PRESRR SLP261
                 =
2018-09-24 02:00 METAR CYYG 240200Z 34013G20KT 15SM FEW035 BKN050 10/03 A3026 RMK SC2SC4 PRESRR
                 SLP250 =
2018-09-24 01:00 METAR CYYG 240100Z 34013G18KT 15SM FEW020 BKN067 10/04 A3023 RMK SC1AC6 SLP239 =
2018-09-24 00:00 METAR CYYG 240000Z 35010KT 15SM FEW022 BKN070 11/07 A3022 RMK SC2AC5 SLP234 =
2018-09-23 23:00 METAR CYYG 232300Z 35009G15KT 15SM FEW035 BKN062 12/07 A3018 RMK SC1SC6 SLP224 =
2018-09-23 22:00 METAR CYYG 232200Z 26009KT 15SM FEW040 BKN110 BKN260 14/06 A3014 RMK SC2AC4CI1
                 SLP208 =

Support USWX by starting your Amazon purchase here.